Time;durP1;ratioP1;P1;durP2;ratioP2;P2;SDS_P1;SDS_P2;PMS_P1;PMS_P2;Temp;Humidity;BMP_temperature;BMP_pressure;BME280_temperature;BME280_humidity;BME280_pressure;Samples;Min_cycle;Max_cycle;Signal;HPM_P1;HPM_P2
2023/11/26 00:01:09;;;;;;;0.40;0.40;;;;;;;2.56;100.00;99108.97;5096271;28;20039;-59
2023/11/26 00:03:38;;;;;;;0.50;0.50;;;;;;;2.58;100.00;99111.41;5091720;28;20116;-59
2023/11/26 00:06:06;;;;;;;0.50;0.50;;;;;;;2.60;100.00;99117.34;5090246;27;20520;-59
2023/11/26 00:08:33;;;;;;;0.40;0.40;;;;;;;2.62;100.00;99112.69;5091934;28;20727;-59
2023/11/26 00:11:00;;;;;;;0.60;0.60;;;;;;;2.65;100.00;99111.47;5091752;28;20046;-58
2023/11/26 00:13:27;;;;;;;0.50;0.50;;;;;;;2.72;100.00;99117.59;5091311;28;20048;-59
2023/11/26 00:15:54;;;;;;;0.50;0.50;;;;;;;2.68;100.00;99119.03;5095221;28;20044;-59
2023/11/26 00:18:23;;;;;;;0.50;0.50;;;;;;;2.69;100.00;99118.81;5086209;28;20043;-60
2023/11/26 00:20:51;;;;;;;0.40;0.40;;;;;;;2.68;100.00;99114.53;5086480;28;20043;-60
2023/11/26 00:23:18;;;;;;;0.40;0.40;;;;;;;2.75;100.00;99126.00;5096370;28;20047;-60
2023/11/26 00:25:45;;;;;;;0.50;0.50;;;;;;;2.74;100.00;99124.34;5092462;27;20082;-59
2023/11/26 00:28:14;;;;;;;0.50;0.50;;;;;;;2.69;100.00;99118.81;5092050;28;20276;-59
2023/11/26 00:30:42;;;;;;;0.43;0.43;;;;;;;2.63;100.00;99122.25;5099670;27;20036;-60
2023/11/26 00:33:10;;;;;;;0.52;0.52;;;;;;;2.62;100.00;99119.78;5105210;27;20785;-59
2023/11/26 00:35:37;;;;;;;0.50;0.50;;;;;;;2.74;100.00;99128.81;5088424;27;20046;-60
2023/11/26 00:38:05;;;;;;;0.57;0.57;;;;;;;2.65;100.00;99125.53;5097320;28;20075;-60
2023/11/26 00:40:32;;;;;;;0.60;0.60;;;;;;;2.67;100.00;99123.50;5107577;27;20093;-60
2023/11/26 00:42:59;;;;;;;0.52;0.52;;;;;;;2.60;100.00;99130.56;5091769;28;20098;-60
2023/11/26 00:45:27;;;;;;;0.57;0.57;;;;;;;2.67;100.00;99136.72;5092872;28;20760;-58
2023/11/26 00:47:54;;;;;;;0.40;0.40;;;;;;;2.69;100.00;99131.22;5091347;28;20155;-60
2023/11/26 00:50:22;;;;;;;0.32;0.32;;;;;;;2.70;100.00;99138.97;5091582;28;20502;-60
2023/11/26 00:52:49;;;;;;;0.50;0.50;;;;;;;2.67;100.00;99135.91;5094616;28;20578;-60
2023/11/26 00:55:18;;;;;;;0.52;0.52;;;;;;;2.72;100.00;99133.47;5094817;27;20113;-59
2023/11/26 00:57:45;;;;;;;0.40;0.40;;;;;;;2.83;100.00;99142.72;5090439;28;20048;-60
2023/11/26 01:00:14;;;;;;;0.40;0.40;;;;;;;2.80;100.00;99147.41;5091703;28;20075;-59
2023/11/26 01:02:41;;;;;;;0.50;0.50;;;;;;;2.76;100.00;99143.50;5088595;28;20728;-60
2023/11/26 01:05:09;;;;;;;0.40;0.40;;;;;;;2.68;100.00;99151.59;5096675;27;20036;-59
2023/11/26 01:07:36;;;;;;;0.50;0.50;;;;;;;2.62;100.00;99146.25;5094086;28;20835;-59
2023/11/26 01:10:04;;;;;;;0.50;0.50;;;;;;;2.67;100.00;99139.38;5096622;28;20032;-59
2023/11/26 01:12:33;;;;;;;0.43;0.43;;;;;;;2.60;100.00;99143.81;5090205;28;20043;-59
2023/11/26 01:15:00;;;;;;;0.60;0.60;;;;;;;2.65;100.00;99145.88;5092584;28;20093;-58
2023/11/26 01:17:27;;;;;;;0.40;0.40;;;;;;;2.66;100.00;99153.59;5093664;28;20556;-59
2023/11/26 01:19:56;;;;;;;0.50;0.50;;;;;;;2.66;100.00;99161.53;5087655;28;20047;-59
2023/11/26 01:22:26;;;;;;;0.50;0.50;;;;;;;2.61;100.00;99165.78;5090987;27;20649;-58
2023/11/26 01:24:53;;;;;;;0.50;0.50;;;;;;;2.65;100.00;99162.56;5088724;28;20040;-59
2023/11/26 01:27:20;;;;;;;0.52;0.52;;;;;;;2.64;100.00;99168.03;5108071;27;20035;-59
2023/11/26 01:29:49;;;;;;;0.47;0.47;;;;;;;2.66;100.00;99169.47;5094279;28;20055;-59
2023/11/26 01:32:18;;;;;;;0.50;0.50;;;;;;;2.70;100.00;99175.22;5092473;28;20043;-59
2023/11/26 01:34:45;;;;;;;0.55;0.55;;;;;;;2.64;100.00;99176.78;5095525;28;20047;-59
2023/11/26 01:37:12;;;;;;;0.60;0.60;;;;;;;2.68;100.00;99178.06;5103989;27;20051;-59
2023/11/26 01:39:39;;;;;;;0.60;0.60;;;;;;;2.42;100.00;99183.97;5097062;28;20043;-59
2023/11/26 01:42:06;;;;;;;0.60;0.60;;;;;;;2.38;100.00;99183.50;5090553;28;20326;-59
2023/11/26 01:44:34;;;;;;;0.47;0.47;;;;;;;2.25;100.00;99178.13;5094002;28;20515;-59
2023/11/26 01:47:04;;;;;;;0.40;0.40;;;;;;;2.33;100.00;99180.63;5096530;28;20048;-59
2023/11/26 01:49:31;;;;;;;0.40;0.40;;;;;;;2.41;100.00;99176.22;5090255;28;20136;-59
2023/11/26 01:51:59;;;;;;;0.50;0.50;;;;;;;2.51;100.00;99171.41;5095429;28;20119;-59
2023/11/26 01:54:26;;;;;;;0.47;0.47;;;;;;;2.46;100.00;99169.34;5090668;28;20330;-59
2023/11/26 01:56:53;;;;;;;0.40;0.40;;;;;;;2.59;100.00;99172.06;5082542;28;20039;-60
2023/11/26 01:59:20;;;;;;;0.50;0.50;;;;;;;2.56;100.00;99184.88;5092312;28;20134;-58
2023/11/26 02:01:47;;;;;;;0.55;0.55;;;;;;;2.54;100.00;99174.47;5104285;27;20036;-60
2023/11/26 02:04:16;;;;;;;0.47;0.47;;;;;;;2.57;100.00;99175.91;5091549;28;20048;-60
2023/11/26 02:06:43;;;;;;;0.50;0.50;;;;;;;2.56;100.00;99184.88;5085800;28;21213;-58
2023/11/26 02:09:10;;;;;;;0.50;0.50;;;;;;;2.54;100.00;99171.00;5088594;28;20062;-58
2023/11/26 02:11:38;;;;;;;0.40;0.40;;;;;;;2.62;100.00;99164.75;5086061;28;20059;-58
2023/11/26 02:14:06;;;;;;;0.50;0.50;;;;;;;2.58;100.00;99172.28;5090420;28;20569;-60
2023/11/26 02:16:34;;;;;;;0.50;0.50;;;;;;;2.58;100.00;99172.28;5092908;28;20039;-58
2023/11/26 02:19:02;;;;;;;0.50;0.50;;;;;;;2.65;100.00;99167.84;5093423;28;20084;-59
2023/11/26 02:21:31;;;;;;;0.50;0.50;;;;;;;2.67;100.00;99171.13;5088627;28;21014;-61
2023/11/26 02:23:58;;;;;;;0.60;0.60;;;;;;;2.64;100.00;99178.63;5093503;28;20139;-59
2023/11/26 02:26:27;;;;;;;0.60;0.60;;;;;;;2.62;100.00;99172.69;5090432;28;20142;-60
2023/11/26 02:28:54;;;;;;;0.50;0.50;;;;;;;2.57;100.00;99168.81;5103310;28;20039;-60
2023/11/26 02:31:21;;;;;;;0.60;0.60;;;;;;;2.68;100.00;99172.75;5094193;28;20130;-59
2023/11/26 02:33:49;;;;;;;0.40;0.40;;;;;;;2.63;100.00;99180.47;5095128;28;20077;-58
2023/11/26 02:36:16;;;;;;;0.50;0.50;;;;;;;2.63;100.00;99174.34;5086576;28;20051;-58
2023/11/26 02:38:43;;;;;;;0.43;0.43;;;;;;;2.53;100.00;99180.78;5093301;27;20044;-59
2023/11/26 02:41:10;;;;;;;0.63;0.63;;;;;;;2.40;100.00;99179.84;5099362;27;20126;-59
2023/11/26 02:43:39;;;;;;;0.40;0.40;;;;;;;2.46;100.00;99184.41;5094168;27;20071;-60
2023/11/26 02:46:06;;;;;;;0.43;0.43;;;;;;;2.30;100.00;99182.84;5098860;27;20059;-60
2023/11/26 02:48:34;;;;;;;0.50;0.50;;;;;;;2.24;100.00;99184.41;5071865;27;20039;-58
2023/11/26 02:51:01;;;;;;;0.50;0.50;;;;;;;2.45;100.00;99188.06;5093436;28;20196;-58
2023/11/26 02:53:28;;;;;;;0.60;0.60;;;;;;;2.44;100.00;99187.22;5089325;28;20043;-59
2023/11/26 02:55:58;;;;;;;0.50;0.50;;;;;;;2.44;100.00;99184.56;5097882;27;20055;-60
2023/11/26 02:58:25;;;;;;;0.60;0.60;;;;;;;2.43;100.00;99187.44;5091085;27;20040;-58
2023/11/26 03:00:54;;;;;;;0.50;0.50;;;;;;;2.42;100.00;99188.41;5092741;28;20599;-60
2023/11/26 03:03:22;;;;;;;0.70;0.70;;;;;;;2.48;100.00;99187.66;5097921;27;20087;-58
2023/11/26 03:05:54;;;;;;;0.50;0.50;;;;;;;2.46;100.00;99192.31;5098035;28;20043;-58
2023/11/26 03:08:22;;;;;;;0.47;0.47;;;;;;;2.51;100.00;99188.09;5093333;28;20047;-58
2023/11/26 03:13:33;;;;;;;0.45;0.45;;;;;;;2.64;100.00;99192.66;5091855;28;20067;-59
2023/11/26 03:16:04;;;;;;;0.40;0.40;;;;;;;2.59;100.00;99189.78;5101017;27;20050;-59
2023/11/26 03:18:32;;;;;;;0.50;0.50;;;;;;;2.62;100.00;99186.78;5097495;27;20044;-59
2023/11/26 03:20:59;;;;;;;0.60;0.60;;;;;;;2.64;100.00;99182.09;5087842;28;20109;-58
2023/11/26 03:23:27;;;;;;;0.68;0.68;;;;;;;2.77;100.00;99187.50;5099343;27;20044;-60
2023/11/26 03:25:54;;;;;;;0.60;0.60;;;;;;;2.71;100.00;99198.03;5097128;27;20706;-59
2023/11/26 03:28:21;;;;;;;0.50;0.50;;;;;;;2.71;100.00;99192.72;5101698;27;20039;-58
2023/11/26 03:30:49;;;;;;;0.63;0.63;;;;;;;2.62;100.00;99200.00;5092521;27;20104;-58
2023/11/26 03:33:18;;;;;;;0.50;0.50;;;;;;;2.65;100.00;99199.63;5109001;27;20051;-58
2023/11/26 03:35:45;;;;;;;0.70;0.70;;;;;;;2.52;100.00;99199.50;5096752;28;20369;-58
2023/11/26 03:38:13;;;;;;;0.50;0.50;;;;;;;2.43;100.00;99211.22;5088531;27;20420;-60
2023/11/26 03:40:40;;;;;;;0.60;0.60;;;;;;;2.47;100.00;99212.47;5092892;28;20151;-60
2023/11/26 03:43:07;;;;;;;0.40;0.40;;;;;;;2.48;100.00;99208.84;5095897;28;20047;-60
2023/11/26 03:45:34;;;;;;;0.52;0.52;;;;;;;2.50;100.00;99220.06;5067762;28;20054;-60
2023/11/26 03:48:01;;;;;;;0.50;0.50;;;;;;;2.45;100.00;99215.31;5095566;28;20051;-58
2023/11/26 03:50:30;;;;;;;0.50;0.50;;;;;;;2.48;100.00;99219.41;5091677;28;20512;-60
2023/11/26 03:52:57;;;;;;;0.50;0.50;;;;;;;2.52;100.00;99212.72;5090852;28;20727;-58
2023/11/26 03:55:24;;;;;;;0.40;0.40;;;;;;;2.43;100.00;99216.53;5092037;28;20147;-59
2023/11/26 03:57:51;;;;;;;0.40;0.40;;;;;;;2.18;100.00;99219.53;5096549;28;20048;-59
2023/11/26 04:00:18;;;;;;;0.40;0.40;;;;;;;2.16;100.00;99219.72;5095487;28;20040;-58
2023/11/26 04:02:46;;;;;;;0.50;0.50;;;;;;;2.38;100.00;99225.84;5090956;28;20105;-59
2023/11/26 04:05:13;;;;;;;0.50;0.50;;;;;;;2.48;100.00;99230.00;5091926;28;20056;-59
2023/11/26 04:07:42;;;;;;;0.50;0.50;;;;;;;2.55;100.00;99226.41;5103618;27;20063;-59
2023/11/26 04:10:11;;;;;;;0.50;0.50;;;;;;;2.49;100.00;99221.03;5086353;28;20055;-59
2023/11/26 04:12:38;;;;;;;0.50;0.50;;;;;;;2.42;100.00;99221.00;5092187;28;20055;-58
2023/11/26 04:15:07;;;;;;;0.60;0.60;;;;;;;2.52;100.00;99232.09;5090715;28;20112;-58
2023/11/26 04:17:34;;;;;;;0.43;0.43;;;;;;;2.48;100.00;99230.00;5091549;28;20050;-58
2023/11/26 04:20:01;;;;;;;0.60;0.60;;;;;;;2.50;100.00;99230.63;5090868;28;20044;-60
2023/11/26 04:22:28;;;;;;;0.50;0.50;;;;;;;2.40;100.00;99227.47;5095681;28;20048;-60
2023/11/26 04:24:56;;;;;;;0.40;0.40;;;;;;;2.37;100.00;99226.84;5089810;28;20511;-60
2023/11/26 04:27:24;;;;;;;0.60;0.60;;;;;;;2.27;100.00;99218.44;5092403;28;20562;-60
2023/11/26 04:29:51;;;;;;;0.65;0.65;;;;;;;2.28;100.00;99221.88;5094429;27;20043;-60
2023/11/26 04:32:18;;;;;;;0.50;0.50;;;;;;;2.20;100.00;99217.53;5096356;28;20048;-60
2023/11/26 04:34:45;;;;;;;0.50;0.50;;;;;;;2.05;100.00;99224.72;5087748;28;20489;-58
2023/11/26 04:37:12;;;;;;;0.60;0.60;;;;;;;2.02;100.00;99230.34;5094251;28;20159;-59
2023/11/26 04:39:39;;;;;;;0.52;0.52;;;;;;;2.02;100.00;99230.34;5089017;27;20119;-59
2023/11/26 04:42:09;;;;;;;0.50;0.50;;;;;;;1.93;100.00;99232.28;5094033;28;20054;-59
2023/11/26 04:44:36;;;;;;;0.50;0.50;;;;;;;1.86;100.00;99226.94;5093406;28;20039;-59
2023/11/26 04:47:04;;;;;;;0.50;0.50;;;;;;;1.85;100.00;99229.78;5089620;28;20046;-59
2023/11/26 04:49:32;;;;;;;0.60;0.60;;;;;;;1.88;100.00;99229.41;5090986;28;20051;-59
2023/11/26 04:51:59;;;;;;;0.60;0.60;;;;;;;1.76;100.00;99226.41;5093765;28;20057;-59
2023/11/26 04:54:26;;;;;;;0.50;0.50;;;;;;;1.75;100.00;99224.78;5093429;28;20209;-59
2023/11/26 04:56:53;;;;;;;0.60;0.60;;;;;;;1.60;100.00;99224.81;5091870;28;20051;-58
2023/11/26 04:59:22;;;;;;;0.52;0.52;;;;;;;1.56;100.00;99230.63;5092261;28;20173;-58
2023/11/26 05:01:54;;;;;;;0.60;0.60;;;;;;;1.50;100.00;99233.00;5093500;28;20189;-59
2023/11/26 05:04:21;;;;;;;0.68;0.68;;;;;;;1.45;100.00;99239.84;5087972;28;20243;-58
2023/11/26 05:06:48;;;;;;;0.60;0.60;;;;;;;1.33;100.00;99234.19;5075539;28;20626;-58
2023/11/26 05:09:16;;;;;;;0.60;0.60;;;;;;;1.24;100.00;99236.09;5081699;27;20052;-59
2023/11/26 05:11:43;;;;;;;0.50;0.50;;;;;;;1.25;100.00;99232.47;5085495;28;20044;-59
2023/11/26 05:14:11;;;;;;;0.50;0.50;;;;;;;1.21;100.00;99233.81;5090587;28;20766;-58
2023/11/26 05:16:39;;;;;;;0.63;0.63;;;;;;;1.14;100.00;99232.91;5092428;28;20651;-60
2023/11/26 05:19:06;;;;;;;0.75;0.75;;;;;;;1.22;100.00;99234.63;5098090;27;20039;-58
2023/11/26 05:21:33;;;;;;;0.68;0.68;;;;;;;1.19;100.00;99240.28;5088173;28;20081;-58
2023/11/26 05:24:01;;;;;;;0.70;0.70;;;;;;;1.17;100.00;99237.00;5092198;28;20067;-59
2023/11/26 05:26:29;;;;;;;0.60;0.60;;;;;;;1.17;100.00;99239.66;5098986;28;20043;-60
2023/11/26 05:28:58;;;;;;;0.68;0.68;;;;;;;1.21;100.00;99243.56;5090945;28;20446;-60
2023/11/26 05:31:25;;;;;;;0.60;0.60;;;;;;;1.26;100.00;99242.03;5089221;28;20138;-60
2023/11/26 05:33:54;;;;;;;0.60;0.60;;;;;;;1.40;100.00;99236.91;5091235;28;20043;-59
2023/11/26 05:36:23;;;;;;;0.60;0.60;;;;;;;1.38;100.00;99242.41;5094035;28;20048;-60
2023/11/26 05:38:50;;;;;;;0.65;0.65;;;;;;;1.44;100.00;99244.28;5090007;28;20054;-58
2023/11/26 05:41:18;;;;;;;0.50;0.50;;;;;;;1.47;100.00;99243.94;5089031;28;20311;-60
2023/11/26 05:43:46;;;;;;;0.73;0.73;;;;;;;1.56;100.00;99249.13;5085835;28;20076;-58
2023/11/26 05:46:13;;;;;;;0.65;0.65;;;;;;;1.59;100.00;99251.41;5093682;28;20047;-62
2023/11/26 05:48:40;;;;;;;0.60;0.60;;;;;;;1.57;100.00;99245.47;5093789;28;20040;-58
2023/11/26 05:51:09;;;;;;;0.60;0.60;;;;;;;1.50;100.00;99250.69;5088671;28;20063;-58
2023/11/26 05:53:36;;;;;;;0.80;0.80;;;;;;;1.78;100.00;99244.72;5090458;28;20031;-58
2023/11/26 05:56:06;;;;;;;0.60;0.60;;;;;;;2.41;100.00;99260.88;5089152;28;20048;-58
2023/11/26 05:58:33;;;;;;;0.60;0.60;;;;;;;3.33;100.00;99259.97;5088400;28;20492;-58
2023/11/26 06:01:00;;;;;;;0.70;0.70;;;;;;;2.26;100.00;99259.09;5089847;28;20040;-58
2023/11/26 06:03:27;;;;;;;0.57;0.57;;;;;;;2.25;100.00;99268.03;5089079;28;20724;-58
2023/11/26 06:05:55;;;;;;;0.50;0.50;;;;;;;2.47;100.00;99265.38;5090607;28;20951;-58
2023/11/26 06:08:23;;;;;;;0.50;0.50;;;;;;;2.01;100.00;99268.38;5089394;28;20102;-58
2023/11/26 06:10:50;;;;;;;0.60;0.60;;;;;;;1.97;100.00;99275.84;5089190;28;20113;-58
2023/11/26 06:13:17;;;;;;;0.70;0.70;;;;;;;1.83;100.00;99271.41;5091833;28;20877;-60
2023/11/26 06:15:44;;;;;;;0.60;0.60;;;;;;;1.81;100.00;99282.16;5091837;28;20036;-58
2023/11/26 06:18:12;;;;;;;0.60;0.60;;;;;;;1.74;100.00;99265.41;5092210;28;20048;-58
2023/11/26 06:20:39;;;;;;;0.50;0.50;;;;;;;1.80;100.00;99267.31;5091997;28;20754;-58
2023/11/26 06:23:06;;;;;;;0.60;0.60;;;;;;;1.83;100.00;99274.06;5096910;28;20156;-58
2023/11/26 06:25:34;;;;;;;0.50;0.50;;;;;;;1.59;100.00;99283.09;5089977;28;20457;-59
2023/11/26 06:28:01;;;;;;;0.45;0.45;;;;;;;1.93;100.00;99275.41;5088888;28;20505;-58
2023/11/26 06:30:29;;;;;;;0.60;0.60;;;;;;;1.92;100.00;99279.06;5093393;28;20147;-58
2023/11/26 06:32:57;;;;;;;0.77;0.77;;;;;;;1.77;100.00;99274.78;5092881;28;20047;-58
2023/11/26 06:35:24;;;;;;;0.75;0.75;;;;;;;1.64;100.00;99278.91;5097158;28;20039;-58
2023/11/26 06:37:51;;;;;;;0.50;0.50;;;;;;;1.46;100.00;99278.47;5094735;28;20051;-58
2023/11/26 06:40:20;;;;;;;0.60;0.60;;;;;;;1.26;100.00;99272.91;5090130;27;20059;-58
2023/11/26 06:42:48;;;;;;;0.70;0.70;;;;;;;1.24;100.00;99280.16;5088844;28;20495;-59
2023/11/26 06:45:15;;;;;;;0.60;0.60;;;;;;;1.27;100.00;99275.38;5087162;28;20052;-61
2023/11/26 06:47:42;;;;;;;0.70;0.70;;;;;;;1.05;100.00;99282.34;5091609;28;20048;-60
2023/11/26 06:50:10;;;;;;;0.63;0.63;;;;;;;1.07;100.00;99277.72;5086705;28;20141;-60
2023/11/26 06:52:37;;;;;;;0.70;0.70;;;;;;;0.96;100.00;99282.59;5087103;28;20205;-59
2023/11/26 06:55:05;;;;;;;0.57;0.57;;;;;;;0.98;100.00;99276.13;5092862;28;20039;-60
2023/11/26 06:57:32;;;;;;;0.70;0.70;;;;;;;1.03;100.00;99279.06;5082345;28;20604;-59
2023/11/26 07:00:03;;;;;;;0.70;0.70;;;;;;;1.02;100.00;99276.59;5087651;28;20042;-59
2023/11/26 07:02:31;;;;;;;0.60;0.60;;;;;;;1.18;100.00;99270.34;5092077;28;20067;-59
2023/11/26 07:04:59;;;;;;;0.50;0.50;;;;;;;1.08;100.00;99266.13;5094218;28;20040;-60
2023/11/26 07:07:26;;;;;;;0.80;0.80;;;;;;;1.09;100.00;99274.88;5090896;28;20071;-59
2023/11/26 07:09:53;;;;;;;0.70;0.70;;;;;;;1.13;100.00;99272.72;5088439;28;20444;-59
2023/11/26 07:12:21;;;;;;;0.63;0.63;;;;;;;1.12;100.00;99273.69;5097332;28;20070;-59
2023/11/26 07:14:50;;;;;;;0.80;0.80;;;;;;;1.08;100.00;99276.69;5092123;28;20043;-59
2023/11/26 07:17:19;;;;;;;0.70;0.70;;;;;;;0.94;100.00;99279.31;5095110;28;20039;-60
2023/11/26 07:19:46;;;;;;;0.80;0.80;;;;;;;0.98;100.00;99281.41;5095567;28;20055;-59
2023/11/26 07:22:16;;;;;;;0.70;0.70;;;;;;;0.90;100.00;99283.28;5096819;28;20063;-59
2023/11/26 07:24:43;;;;;;;0.60;0.60;;;;;;;0.86;100.00;99288.94;5089203;28;20051;-59
2023/11/26 07:27:10;;;;;;;0.52;0.52;;;;;;;0.76;100.00;99283.09;5093832;28;20067;-59
2023/11/26 07:29:38;;;;;;;0.60;0.60;;;;;;;0.91;100.00;99282.31;5091577;28;20051;-60
2023/11/26 07:32:05;;;;;;;0.60;0.60;;;;;;;0.80;100.00;99278.25;5093121;28;20066;-59
2023/11/26 07:34:34;;;;;;;0.80;0.80;;;;;;;0.84;100.00;99285.66;5091877;27;20055;-59
2023/11/26 07:37:05;;;;;;;0.70;0.70;;;;;;;0.92;100.00;99282.13;5087527;28;20472;-59
2023/11/26 07:39:32;;;;;;;0.70;0.70;;;;;;;1.00;100.00;99283.84;5089246;28;20128;-59
2023/11/26 07:41:59;;;;;;;0.77;0.77;;;;;;;1.14;100.00;99279.63;5096266;27;20085;-59
2023/11/26 07:44:27;;;;;;;0.80;0.80;;;;;;;1.14;100.00;99277.78;5088645;28;20056;-58
2023/11/26 07:46:54;;;;;;;0.80;0.80;;;;;;;1.06;100.00;99278.69;5079012;28;20063;-58
2023/11/26 07:49:21;;;;;;;0.60;0.60;;;;;;;1.04;100.00;99285.16;5092220;28;20051;-60
2023/11/26 07:51:50;;;;;;;0.68;0.68;;;;;;;0.88;100.00;99278.22;5088799;28;20174;-60
2023/11/26 07:54:17;;;;;;;0.70;0.70;;;;;;;0.81;100.00;99279.91;5085608;28;20774;-59
2023/11/26 07:56:44;;;;;;;0.70;0.70;;;;;;;0.84;100.00;99275.09;5092216;28;20044;-59
2023/11/26 07:59:11;;;;;;;0.77;0.77;;;;;;;1.03;100.00;99278.25;5093197;28;20303;-59
2023/11/26 08:01:39;;;;;;;0.60;0.60;;;;;;;0.97;100.00;99278.94;5094115;28;20048;-59
2023/11/26 08:04:07;;;;;;;0.70;0.70;;;;;;;0.96;100.00;99269.41;5093524;28;20256;-60
2023/11/26 08:06:35;;;;;;;0.60;0.60;;;;;;;1.01;100.00;99261.75;5089844;28;20075;-59
2023/11/26 08:09:08;;;;;;;0.70;0.70;;;;;;;1.06;100.00;99270.78;5088363;28;20488;-59
2023/11/26 08:11:43;;;;;;;0.82;0.82;;;;;;;1.12;100.00;99273.69;5093231;28;20082;-60
2023/11/26 08:14:12;;;;;;;0.70;0.70;;;;;;;1.14;100.00;99280.44;5092989;28;20054;-61
2023/11/26 08:16:40;;;;;;;0.77;0.77;;;;;;;1.27;100.00;99279.81;5086551;28;20453;-60
2023/11/26 08:19:12;;;;;;;0.75;0.75;;;;;;;1.50;100.00;99277.91;5091877;28;20151;-58
2023/11/26 08:21:40;;;;;;;0.60;0.60;;;;;;;1.29;100.00;99277.81;5092556;28;20047;-58
2023/11/26 08:24:13;;;;;;;0.55;0.55;;;;;;;1.46;100.00;99295.13;5092894;28;20039;-58
2023/11/26 08:26:41;;;;;;;0.70;0.70;;;;;;;1.46;100.00;99287.19;5093848;28;20067;-61
2023/11/26 08:29:09;;;;;;;0.70;0.70;;;;;;;1.47;100.00;99285.38;5092103;28;20524;-60
2023/11/26 08:31:37;;;;;;;0.70;0.70;;;;;;;1.45;100.00;99290.03;5086756;28;20053;-59
2023/11/26 08:34:08;;;;;;;0.80;0.80;;;;;;;1.51;100.00;99281.38;5086291;28;20667;-60
2023/11/26 08:36:42;;;;;;;0.50;0.50;;;;;;;1.58;100.00;99286.75;5083497;28;20045;-60
2023/11/26 08:39:18;;;;;;;;;;;;;;;1.99;100.00;99281.75;5093131;28;20035;-58
2023/11/26 08:41:45;;;;;;;0.60;0.60;;;;;;;1.86;100.00;99290.34;5089226;28;20455;-59
2023/11/26 08:44:13;;;;;;;0.60;0.60;;;;;;;1.84;100.00;99286.25;5092085;28;20048;-58
2023/11/26 08:46:41;;;;;;;0.63;0.63;;;;;;;2.20;100.00;99283.66;5092539;28;20462;-60
2023/11/26 08:49:09;;;;;;;0.80;0.80;;;;;;;1.86;100.00;99285.06;5096300;28;20135;-60
2023/11/26 08:51:36;;;;;;;0.63;0.63;;;;;;;1.98;100.00;99297.84;5092813;28;20136;-58
2023/11/26 08:54:03;;;;;;;0.68;0.68;;;;;;;1.88;100.00;99290.19;5093749;28;20081;-60
2023/11/26 08:56:33;;;;;;;0.60;0.60;;;;;;;1.89;100.00;99287.34;5093262;28;20550;-60
2023/11/26 08:59:00;;;;;;;0.65;0.65;;;;;;;2.05;100.00;99290.81;5094031;28;20124;-60
2023/11/26 09:01:30;;;;;;;0.60;0.60;;;;;;;2.10;100.00;99293.72;5092513;28;20676;-60
2023/11/26 09:03:57;;;;;;;0.50;0.50;;;;;;;2.15;100.00;99289.50;5087872;27;20044;-60
2023/11/26 09:06:24;;;;;;;0.60;0.60;;;;;;;2.09;100.00;99273.53;5088996;28;20345;-60
2023/11/26 09:08:51;;;;;;;0.50;0.50;;;;;;;2.13;100.00;99286.22;5091314;27;20501;-58
2023/11/26 09:11:18;;;;;;;0.60;0.60;;;;;;;2.09;100.00;99289.41;5095318;28;20124;-60
2023/11/26 09:13:47;;;;;;;0.73;0.73;;;;;;;2.37;100.00;99293.00;5088790;28;20055;-60
2023/11/26 09:16:16;;;;;;;0.60;0.60;;;;;;;2.29;100.00;99284.34;5088682;28;20228;-59
2023/11/26 09:18:43;;;;;;;0.68;0.68;;;;;;;2.33;100.00;99291.72;5085917;28;21096;-60
2023/11/26 09:21:10;;;;;;;0.60;0.60;;;;;;;2.28;100.00;99294.09;5092916;27;20044;-60
2023/11/26 09:23:37;;;;;;;0.70;0.70;;;;;;;2.38;100.00;99299.91;5089196;28;20628;-58
2023/11/26 09:26:05;;;;;;;0.50;0.50;;;;;;;2.21;100.00;99295.84;5089878;28;20047;-60
2023/11/26 09:28:32;;;;;;;0.60;0.60;;;;;;;2.46;100.00;99306.09;5091920;28;20090;-60
2023/11/26 09:31:03;;;;;;;0.60;0.60;;;;;;;2.50;100.00;99294.94;5088373;28;20043;-59
2023/11/26 09:33:30;;;;;;;0.57;0.57;;;;;;;2.54;100.00;99306.78;5092566;28;20072;-59
2023/11/26 09:35:58;;;;;;;0.50;0.50;;;;;;;2.78;100.00;99305.59;5091794;28;20136;-60
2023/11/26 09:38:25;;;;;;;0.60;0.60;;;;;;;2.68;100.00;99309.56;5090161;28;20457;-60
2023/11/26 09:40:52;;;;;;;0.68;0.68;;;;;;;2.74;100.00;99306.97;5090346;28;20044;-58
2023/11/26 09:43:19;;;;;;;0.60;0.60;;;;;;;2.74;100.00;99309.59;5090709;28;20121;-60
2023/11/26 09:45:47;;;;;;;0.52;0.52;;;;;;;2.81;100.00;99305.19;5091597;28;20043;-60
2023/11/26 09:48:15;;;;;;;0.50;0.50;;;;;;;2.69;100.00;99309.34;5096609;28;20579;-60
2023/11/26 09:50:43;;;;;;;0.63;0.63;;;;;;;2.79;100.00;99299.28;5089818;28;20501;-59
2023/11/26 09:53:10;;;;;;;0.60;0.60;;;;;;;2.86;100.00;99298.53;5094094;28;20039;-59
2023/11/26 09:55:39;;;;;;;0.60;0.60;;;;;;;2.94;100.00;99298.38;5092006;28;20048;-59
2023/11/26 09:58:06;;;;;;;0.50;0.50;;;;;;;2.91;100.00;99298.78;5093046;28;20043;-59
2023/11/26 10:00:33;;;;;;;0.60;0.60;;;;;;;3.03;100.00;99297.25;5095294;28;20086;-60
2023/11/26 10:03:01;;;;;;;0.50;0.50;;;;;;;3.08;100.00;99286.88;5096614;28;20042;-59
2023/11/26 10:05:29;;;;;;;0.50;0.50;;;;;;;3.15;100.00;99284.31;5098161;28;20321;-59
2023/11/26 10:07:56;;;;;;;0.63;0.63;;;;;;;3.34;100.00;99286.25;5096289;28;20474;-59
2023/11/26 10:10:24;;;;;;;0.70;0.70;;;;;;;3.26;100.00;99275.00;5097353;28;20039;-59
2023/11/26 10:12:52;;;;;;;0.50;0.50;;;;;;;3.37;100.00;99277.94;5093405;28;20039;-59
2023/11/26 10:15:20;;;;;;;0.50;0.50;;;;;;;3.65;100.00;99272.56;5088269;28;20044;-59
2023/11/26 10:18:02;;;;;;;0.60;0.60;;;;;;;3.44;100.00;99272.66;5094552;28;20088;-59
2023/11/26 10:20:31;;;;;;;0.50;0.50;;;;;;;3.60;100.00;99271.53;5086382;28;20096;-59
2023/11/26 10:22:58;;;;;;;0.40;0.40;;;;;;;3.54;100.00;99273.13;5088578;28;20090;-59
2023/11/26 10:25:25;;;;;;;0.60;0.60;;;;;;;3.33;100.00;99276.66;5086914;28;20040;-59
2023/11/26 10:27:54;;;;;;;0.60;0.60;;;;;;;3.54;100.00;99273.13;5083441;28;20130;-59
2023/11/26 10:30:27;;;;;;;0.55;0.55;;;;;;;3.46;100.00;99275.94;5093297;28;20624;-59
2023/11/26 10:33:02;;;;;;;0.50;0.50;;;;;;;3.45;100.00;99277.78;5075407;28;20048;-59
2023/11/26 10:35:44;;;;;;;0.50;0.50;;;;;;;3.64;100.00;99268.31;5091557;28;20108;-58
2023/11/26 10:38:11;;;;;;;0.52;0.52;;;;;;;3.54;100.00;99265.16;5092648;28;20142;-59
2023/11/26 10:40:40;;;;;;;0.50;0.50;;;;;;;3.65;100.00;99259.31;5089362;28;20587;-59
2023/11/26 10:43:08;;;;;;;0.40;0.40;;;;;;;3.65;100.00;99258.50;5090628;28;20047;-59
2023/11/26 10:45:35;;;;;;;0.50;0.50;;;;;;;3.79;100.00;99264.69;5089945;28;20066;-59
2023/11/26 10:48:08;;;;;;;0.50;0.50;;;;;;;3.78;100.00;99266.50;5095084;28;20043;-59
2023/11/26 10:50:39;;;;;;;0.57;0.57;;;;;;;3.99;100.00;99262.91;5093347;28;20457;-59
2023/11/26 10:53:11;;;;;;;0.43;0.43;;;;;;;3.93;100.00;99266.38;5089702;28;20050;-59
2023/11/26 10:55:39;;;;;;;0.50;0.50;;;;;;;4.06;100.00;99255.78;5093923;27;20048;-59
2023/11/26 10:58:11;;;;;;;0.50;0.50;;;;;;;4.13;100.00;99260.31;5090743;28;20747;-59
2023/11/26 11:00:38;;;;;;;0.50;0.50;;;;;;;4.26;100.00;99253.19;5098088;27;20039;-59
2023/11/26 11:03:05;;;;;;;0.40;0.40;;;;;;;4.30;100.00;99253.63;5093037;28;20044;-59
2023/11/26 11:05:34;;;;;;;0.40;0.40;;;;;;;4.34;100.00;99249.53;5095220;28;20241;-59
2023/11/26 11:08:02;;;;;;;0.50;0.50;;;;;;;4.57;100.00;99248.34;5098954;27;20043;-58
2023/11/26 11:10:35;;;;;;;0.40;0.40;;;;;;;4.54;100.00;99241.59;5094976;28;20054;-59
2023/11/26 11:13:07;;;;;;;0.40;0.40;;;;;;;4.49;100.00;99250.19;5091746;28;20559;-59
2023/11/26 11:15:34;;;;;;;0.55;0.55;;;;;;;4.58;100.00;99240.19;5089916;28;20091;-59
2023/11/26 11:18:22;;;;;;;0.50;0.50;;;;;;;4.23;100.00;99244.84;5091909;27;20207;-58
2023/11/26 11:21:05;;;;;;;0.40;0.40;;;;;;;4.54;100.00;99236.28;5090646;27;20043;-58
2023/11/26 11:23:32;;;;;;;0.50;0.50;;;;;;;4.65;100.00;99237.56;5094846;28;20046;-58
2023/11/26 11:26:01;;;;;;;0.50;0.50;;;;;;;4.69;100.00;99239.59;5095841;27;20080;-58
2023/11/26 11:28:36;;;;;;;0.40;0.40;;;;;;;4.83;100.00;99237.75;5091774;28;20051;-58
2023/11/26 11:31:03;;;;;;;0.30;0.30;;;;;;;4.49;100.00;99247.53;5089400;28;20067;-59
2023/11/26 11:33:32;;;;;;;0.40;0.40;;;;;;;4.52;100.00;99239.16;5090709;27;20040;-59
2023/11/26 11:36:03;;;;;;;0.43;0.43;;;;;;;4.60;100.00;99240.00;5092522;27;20050;-59
2023/11/26 11:38:30;;;;;;;;;;;;;;;4.73;100.00;99240.81;5093485;28;20043;-59
2023/11/26 11:41:08;;;;;;;0.50;0.50;;;;;;;4.57;100.00;99237.72;5094951;27;19927;-59